Keoyoung Sun — DSOD8 — position and weather

sailwx.info

Track history (hours):
 
Tides and Currents Weather Stations Pressure Air Temp Water Temp Dewpoint Dewpoint Depression Visibility Wind Speed Wind Dir Waves Ship Positions

Keoyoung Sun

Last reported at 2018-Jun-21 00:53 UTC. Time now 2018-Jun-21 02:36 UTC.
Position N 35°31' E 139°46'.

Length 64 m; draft 3.5 m.

Type: Tanker. MMSI: 440554000.

Date/timePositionNaut miles runAvg speedWind from/ knotsBaromVisibWave heightAir tempDewpointWater temp
2018-Jun-21 00:53N 35°31' E 139°46'1 2.1
2018-Jun-21 00:30N 35°31' E 139°46'2 4.5
2018-Jun-21 00:00N 35°29' E 139°48'1 0.1
2018-Jun-20 14:17N 35°28' E 139°48'1 2.1
2018-Jun-20 14:00N 35°28' E 139°48'611.6
2018-Jun-20 13:30N 35°22' E 139°45'510.6
2018-Jun-20 13:01N 35°17' E 139°45'610.4
2018-Jun-20 12:25N 35°11' E 139°46'3 0.5
2018-Jun-20 06:52N 35°08' E 139°44'511.7
2018-Jun-20 06:28N 35°13' E 139°46'611.9
2018-Jun-20 05:57N 35°19' E 139°43'511.4
2018-Jun-20 05:30N 35°24' E 139°43'510.5
2018-Jun-20 05:01N 35°28' E 139°40'1 1.5
2018-Jun-20 04:27N 35°29' E 139°40'0 0.0
2018-Jun-20 04:00N 35°29' E 139°40'0 0.0
2018-Jun-20 03:30N 35°29' E 139°40'0 0.0
2018-Jun-20 03:00N 35°29' E 139°40'0 0.0
2018-Jun-20 02:30N 35°29' E 139°40'0 0.0
2018-Jun-20 02:00N 35°29' E 139°40'0 0.0
2018-Jun-20 01:30N 35°29' E 139°40'0 0.0
2018-Jun-20 01:00N 35°29' E 139°40'0 0.0
2018-Jun-20 00:30N 35°29' E 139°40'0 0.0
2018-Jun-19 23:57N 35°29' E 139°40'0 0.1
2018-Jun-19 23:30N 35°29' E 139°40'3 6.0
2018-Jun-19 23:01N 35°27' E 139°42'0 0.3
2018-Jun-19 22:30N 35°27' E 139°43'0 0.0
2018-Jun-19 22:00N 35°27' E 139°43'0 0.0
2018-Jun-19 21:27N 35°27' E 139°43'0 0.0
2018-Jun-19 21:00N 35°27' E 139°43'0 0.0
2018-Jun-19 20:30N 35°27' E 139°43'0 0.0
2018-Jun-19 20:00N 35°27' E 139°43'0 0.0
2018-Jun-19 19:30N 35°27' E 139°43'0 0.0
2018-Jun-19 19:00N 35°27' E 139°43'0 0.0
2018-Jun-19 18:30N 35°27' E 139°43'0 0.0
2018-Jun-19 18:00N 35°27' E 139°43'0 0.0
2018-Jun-19 17:27N 35°27' E 139°43'0 0.1
2018-Jun-19 16:57N 35°27' E 139°42'0 0.1
2018-Jun-19 16:30N 35°27' E 139°43'0 0.1
2018-Jun-19 16:00N 35°27' E 139°42'0 0.0
2018-Jun-19 15:30N 35°27' E 139°42'0 0.0
2018-Jun-19 15:00N 35°27' E 139°42'0 0.0
2018-Jun-19 14:30N 35°27' E 139°42'0 0.1
2018-Jun-19 14:00N 35°27' E 139°43'0 0.0
2018-Jun-19 13:30N 35°27' E 139°43'0 0.0
2018-Jun-19 12:57N 35°27' E 139°43'0 0.0
2018-Jun-19 12:30N 35°27' E 139°43'0 0.0
2018-Jun-19 11:57N 35°27' E 139°43'0 0.0
2018-Jun-19 11:30N 35°27' E 139°43'0 0.0
2018-Jun-19 10:57N 35°27' E 139°43'0 0.1
2018-Jun-19 10:30N 35°27' E 139°43'0 0.0
2018-Jun-19 09:57N 35°27' E 139°43'0 0.0
2018-Jun-19 09:27N 35°27' E 139°43'0 0.1
2018-Jun-19 09:00N 35°27' E 139°43'0 0.1
2018-Jun-19 08:30N 35°27' E 139°43'0 0.1
2018-Jun-19 08:00N 35°27' E 139°43'1 2.9
2018-Jun-19 07:30N 35°25' E 139°43'510.7
2018-Jun-19 07:01N 35°20' E 139°43'510.4
2018-Jun-19 06:31N 35°16' E 139°46'250 7.3
2018-Jun-17 20:09N 33°55' E 134°60'311.2
2018-Jun-17 19:50N 33°57' E 134°57'911.0
2018-Jun-17 19:01N 34°04' E 134°49'012.3
2018-Jun-17 19:00N 34°04' E 134°49'2011.3
2018-Jun-17 17:15N 34°17' E 134°32'311.2
2018-Jun-17 16:56N 34°19' E 134°28'511.0
2018-Jun-17 16:27N 34°21' E 134°22'  
2018-Jun-13 08:13N 35°09' E 139°44'411.6
2018-Jun-13 07:55N 35°12' E 139°46'710.5
2018-Jun-13 07:13N 35°19' E 139°43'211.6
2018-Jun-13 07:00N 35°21' E 139°42'510.8
2018-Jun-13 06:30N 35°27' E 139°41'2 4.6
2018-Jun-13 05:59N 35°29' E 139°40'0 0.0
2018-Jun-13 05:23N 35°29' E 139°40'0 0.0
2018-Jun-13 04:56N 35°29' E 139°40'0 0.0
2018-Jun-13 04:29N 35°29' E 139°40'0 0.0
2018-Jun-13 03:56N 35°29' E 139°40'0 0.0
2018-Jun-13 03:26N 35°29' E 139°40'0 0.0
2018-Jun-13 02:59N 35°29' E 139°40'0 0.0
2018-Jun-13 02:23N 35°29' E 139°40'0 0.0
2018-Jun-13 01:59N 35°29' E 139°40'0 0.0
2018-Jun-13 01:29N 35°29' E 139°40'0 0.0
2018-Jun-13 00:59N 35°29' E 139°40'0 0.0
2018-Jun-13 00:29N 35°29' E 139°40'0 0.0
2018-Jun-12 23:59N 35°29' E 139°40'0 0.0
2018-Jun-12 23:30N 35°29' E 139°40'3 6.1
2018-Jun-12 23:00N 35°26' E 139°42'0 0.1
2018-Jun-12 22:17N 35°27' E 139°42'0 0.0
2018-Jun-12 21:50N 35°27' E 139°42'0 0.0
2018-Jun-12 21:26N 35°27' E 139°42'0 0.0
2018-Jun-12 19:20N 35°27' E 139°42'0 0.0
2018-Jun-12 18:53N 35°27' E 139°42'0 0.0
2018-Jun-12 18:29N 35°27' E 139°42'0 0.0
2018-Jun-12 17:59N 35°27' E 139°42'0 0.0
2018-Jun-12 17:29N 35°27' E 139°42'0 0.0
2018-Jun-12 12:47N 35°27' E 139°42'0 0.0
2018-Jun-12 12:29N 35°27' E 139°42'0 0.0
2018-Jun-12 11:47N 35°27' E 139°42'0 0.0
2018-Jun-12 10:47N 35°27' E 139°42'0 0.0
2018-Jun-12 10:29N 35°27' E 139°42'0 0.7
2018-Jun-12 10:00N 35°26' E 139°43'5 9.2
2018-Jun-12 09:31N 35°22' E 139°43'5 9.5
2018-Jun-12 09:01N 35°17' E 139°45'5 9.7
2018-Jun-12 08:30N 35°12' E 139°47'249 9.5
2018-Jun-11 06:23N 33°51' E 135°01'611.1
2018-Jun-11 05:53N 33°55' E 134°57'1011.2
2018-Jun-11 04:58N 34°03' E 134°49'  
Track history (hours):
 
Tides and Currents Weather Stations Pressure Air Temp Water Temp Dewpoint Dewpoint Depression Visibility Wind Speed Wind Dir Waves Ship Positions

Keoyoung Sun

Last reported at 2018-Jun-21 00:53 UTC. Time now 2018-Jun-21 02:36 UTC.
Position N 35°31' E 139°46'.

Length 64 m; draft 3.5 m.

Type: Tanker. MMSI: 440554000.

Date/timePositionNaut miles runAvg speedWind from/ knotsBaromVisibWave heightAir tempDewpointWater temp
2018-Jun-21 00:53N 35°31' E 139°46'1 2.1
2018-Jun-21 00:30N 35°31' E 139°46'2 4.5
2018-Jun-21 00:00N 35°29' E 139°48'1 0.1
2018-Jun-20 14:17N 35°28' E 139°48'1 2.1
2018-Jun-20 14:00N 35°28' E 139°48'611.6
2018-Jun-20 13:30N 35°22' E 139°45'510.6
2018-Jun-20 13:01N 35°17' E 139°45'610.4
2018-Jun-20 12:25N 35°11' E 139°46'3 0.5
2018-Jun-20 06:52N 35°08' E 139°44'511.7
2018-Jun-20 06:28N 35°13' E 139°46'611.9
2018-Jun-20 05:57N 35°19' E 139°43'511.4
2018-Jun-20 05:30N 35°24' E 139°43'510.5
2018-Jun-20 05:01N 35°28' E 139°40'1 1.5
2018-Jun-20 04:27N 35°29' E 139°40'0 0.0
2018-Jun-20 04:00N 35°29' E 139°40'0 0.0
2018-Jun-20 03:30N 35°29' E 139°40'0 0.0
2018-Jun-20 03:00N 35°29' E 139°40'0 0.0
2018-Jun-20 02:30N 35°29' E 139°40'0 0.0
2018-Jun-20 02:00N 35°29' E 139°40'0 0.0
2018-Jun-20 01:30N 35°29' E 139°40'0 0.0
2018-Jun-20 01:00N 35°29' E 139°40'0 0.0
2018-Jun-20 00:30N 35°29' E 139°40'0 0.0
2018-Jun-19 23:57N 35°29' E 139°40'0 0.1
2018-Jun-19 23:30N 35°29' E 139°40'3 6.0
2018-Jun-19 23:01N 35°27' E 139°42'0 0.3
2018-Jun-19 22:30N 35°27' E 139°43'0 0.0
2018-Jun-19 22:00N 35°27' E 139°43'0 0.0
2018-Jun-19 21:27N 35°27' E 139°43'0 0.0
2018-Jun-19 21:00N 35°27' E 139°43'0 0.0
2018-Jun-19 20:30N 35°27' E 139°43'0 0.0
2018-Jun-19 20:00N 35°27' E 139°43'0 0.0
2018-Jun-19 19:30N 35°27' E 139°43'0 0.0
2018-Jun-19 19:00N 35°27' E 139°43'0 0.0
2018-Jun-19 18:30N 35°27' E 139°43'0 0.0
2018-Jun-19 18:00N 35°27' E 139°43'0 0.0
2018-Jun-19 17:27N 35°27' E 139°43'0 0.1
2018-Jun-19 16:57N 35°27' E 139°42'0 0.1
2018-Jun-19 16:30N 35°27' E 139°43'0 0.1
2018-Jun-19 16:00N 35°27' E 139°42'0 0.0
2018-Jun-19 15:30N 35°27' E 139°42'0 0.0
2018-Jun-19 15:00N 35°27' E 139°42'0 0.0
2018-Jun-19 14:30N 35°27' E 139°42'0 0.1
2018-Jun-19 14:00N 35°27' E 139°43'0 0.0
2018-Jun-19 13:30N 35°27' E 139°43'0 0.0
2018-Jun-19 12:57N 35°27' E 139°43'0 0.0
2018-Jun-19 12:30N 35°27' E 139°43'0 0.0
2018-Jun-19 11:57N 35°27' E 139°43'0 0.0
2018-Jun-19 11:30N 35°27' E 139°43'0 0.0
2018-Jun-19 10:57N 35°27' E 139°43'0 0.1
2018-Jun-19 10:30N 35°27' E 139°43'0 0.0
2018-Jun-19 09:57N 35°27' E 139°43'0 0.0
2018-Jun-19 09:27N 35°27' E 139°43'0 0.1
2018-Jun-19 09:00N 35°27' E 139°43'0 0.1
2018-Jun-19 08:30N 35°27' E 139°43'0 0.1
2018-Jun-19 08:00N 35°27' E 139°43'1 2.9
2018-Jun-19 07:30N 35°25' E 139°43'510.7
2018-Jun-19 07:01N 35°20' E 139°43'510.4
2018-Jun-19 06:31N 35°16' E 139°46'250 7.3
2018-Jun-17 20:09N 33°55' E 134°60'311.2
2018-Jun-17 19:50N 33°57' E 134°57'911.0
2018-Jun-17 19:01N 34°04' E 134°49'012.3
2018-Jun-17 19:00N 34°04' E 134°49'2011.3
2018-Jun-17 17:15N 34°17' E 134°32'311.2
2018-Jun-17 16:56N 34°19' E 134°28'511.0
2018-Jun-17 16:27N 34°21' E 134°22'  
2018-Jun-13 08:13N 35°09' E 139°44'411.6
2018-Jun-13 07:55N 35°12' E 139°46'710.5
2018-Jun-13 07:13N 35°19' E 139°43'211.6
2018-Jun-13 07:00N 35°21' E 139°42'510.8
2018-Jun-13 06:30N 35°27' E 139°41'2 4.6
2018-Jun-13 05:59N 35°29' E 139°40'0 0.0
2018-Jun-13 05:23N 35°29' E 139°40'0 0.0
2018-Jun-13 04:56N 35°29' E 139°40'0 0.0
2018-Jun-13 04:29N 35°29' E 139°40'0 0.0
2018-Jun-13 03:56N 35°29' E 139°40'0 0.0
2018-Jun-13 03:26N 35°29' E 139°40'0 0.0
2018-Jun-13 02:59N 35°29' E 139°40'0 0.0
2018-Jun-13 02:23N 35°29' E 139°40'0 0.0
2018-Jun-13 01:59N 35°29' E 139°40'0 0.0
2018-Jun-13 01:29N 35°29' E 139°40'0 0.0
2018-Jun-13 00:59N 35°29' E 139°40'0 0.0
2018-Jun-13 00:29N 35°29' E 139°40'0 0.0
2018-Jun-12 23:59N 35°29' E 139°40'0 0.0
2018-Jun-12 23:30N 35°29' E 139°40'3 6.1
2018-Jun-12 23:00N 35°26' E 139°42'0 0.1
2018-Jun-12 22:17N 35°27' E 139°42'0 0.0
2018-Jun-12 21:50N 35°27' E 139°42'0 0.0
2018-Jun-12 21:26N 35°27' E 139°42'0 0.0
2018-Jun-12 19:20N 35°27' E 139°42'0 0.0
2018-Jun-12 18:53N 35°27' E 139°42'0 0.0
2018-Jun-12 18:29N 35°27' E 139°42'0 0.0
2018-Jun-12 17:59N 35°27' E 139°42'0 0.0
2018-Jun-12 17:29N 35°27' E 139°42'0 0.0
2018-Jun-12 12:47N 35°27' E 139°42'0 0.0
2018-Jun-12 12:29N 35°27' E 139°42'0 0.0
2018-Jun-12 11:47N 35°27' E 139°42'0 0.0
2018-Jun-12 10:47N 35°27' E 139°42'0 0.0
2018-Jun-12 10:29N 35°27' E 139°42'0 0.7
2018-Jun-12 10:00N 35°26' E 139°43'5 9.2
2018-Jun-12 09:31N 35°22' E 139°43'5 9.5
2018-Jun-12 09:01N 35°17' E 139°45'5 9.7
2018-Jun-12 08:30N 35°12' E 139°47'249 9.5
2018-Jun-11 06:23N 33°51' E 135°01'611.1
2018-Jun-11 05:53N 33°55' E 134°57'1011.2
2018-Jun-11 04:58N 34°03' E 134°49'  

Dump ship's entire track history